sensor_id;sensor_type;location;lat;lon;timestamp;P1;durP1;ratioP1;P2;durP2;ratioP2
79755;SDS011;69239;50.678;12.280;2023-05-14T00:02:08;7.07;;;4.05;;
79755;SDS011;69239;50.678;12.280;2023-05-14T00:04:34;5.82;;;4.35;;
79755;SDS011;69239;50.678;12.280;2023-05-14T00:06:59;6.13;;;4.23;;
79755;SDS011;69239;50.678;12.280;2023-05-14T00:09:24;6.15;;;4.38;;
79755;SDS011;69239;50.678;12.280;2023-05-14T00:11:50;5.68;;;4.10;;
79755;SDS011;69239;50.678;12.280;2023-05-14T00:14:16;4.15;;;3.33;;
79755;SDS011;69239;50.678;12.280;2023-05-14T00:16:41;7.18;;;3.67;;
79755;SDS011;69239;50.678;12.280;2023-05-14T00:19:07;6.60;;;4.53;;
79755;SDS011;69239;50.678;12.280;2023-05-14T00:21:32;4.97;;;4.15;;
79755;SDS011;69239;50.678;12.280;2023-05-14T00:23:57;5.20;;;4.18;;
79755;SDS011;69239;50.678;12.280;2023-05-14T00:26:23;8.43;;;4.63;;
79755;SDS011;69239;50.678;12.280;2023-05-14T00:28:48;6.63;;;4.80;;
79755;SDS011;69239;50.678;12.280;2023-05-14T00:31:13;5.40;;;4.28;;
79755;SDS011;69239;50.678;12.280;2023-05-14T00:33:39;5.40;;;4.10;;
79755;SDS011;69239;50.678;12.280;2023-05-14T00:36:04;4.50;;;3.67;;
79755;SDS011;69239;50.678;12.280;2023-05-14T00:38:30;6.55;;;4.88;;
79755;SDS011;69239;50.678;12.280;2023-05-14T00:40:55;5.83;;;4.57;;
79755;SDS011;69239;50.678;12.280;2023-05-14T00:43:21;6.53;;;5.13;;
79755;SDS011;69239;50.678;12.280;2023-05-14T00:45:48;7.72;;;5.28;;
79755;SDS011;69239;50.678;12.280;2023-05-14T00:48:15;7.80;;;5.20;;
79755;SDS011;69239;50.678;12.280;2023-05-14T00:50:41;6.85;;;4.57;;
79755;SDS011;69239;50.678;12.280;2023-05-14T00:53:06;7.13;;;4.75;;
79755;SDS011;69239;50.678;12.280;2023-05-14T00:55:34;5.38;;;4.18;;
79755;SDS011;69239;50.678;12.280;2023-05-14T00:58:02;5.90;;;4.03;;
79755;SDS011;69239;50.678;12.280;2023-05-14T01:00:30;7.43;;;5.03;;
79755;SDS011;69239;50.678;12.280;2023-05-14T01:02:55;4.70;;;3.80;;
79755;SDS011;69239;50.678;12.280;2023-05-14T01:05:21;6.00;;;4.32;;
79755;SDS011;69239;50.678;12.280;2023-05-14T01:08:00;6.50;;;5.03;;
79755;SDS011;69239;50.678;12.280;2023-05-14T01:10:36;6.28;;;5.53;;
79755;SDS011;69239;50.678;12.280;2023-05-14T01:13:13;5.25;;;4.30;;
79755;SDS011;69239;50.678;12.280;2023-05-14T01:15:48;5.32;;;4.22;;
79755;SDS011;69239;50.678;12.280;2023-05-14T01:18:15;5.43;;;4.38;;
79755;SDS011;69239;50.678;12.280;2023-05-14T01:20:43;5.10;;;4.32;;
79755;SDS011;69239;50.678;12.280;2023-05-14T01:23:09;7.28;;;4.35;;
79755;SDS011;69239;50.678;12.280;2023-05-14T01:25:35;4.13;;;3.50;;
79755;SDS011;69239;50.678;12.280;2023-05-14T01:30:54;5.68;;;4.70;;
79755;SDS011;69239;50.678;12.280;2023-05-14T01:33:23;8.20;;;5.82;;
79755;SDS011;69239;50.678;12.280;2023-05-14T01:35:51;6.40;;;4.82;;
79755;SDS011;69239;50.678;12.280;2023-05-14T01:38:18;5.70;;;4.78;;
79755;SDS011;69239;50.678;12.280;2023-05-14T01:40:45;7.00;;;5.10;;
79755;SDS011;69239;50.678;12.280;2023-05-14T01:43:12;6.30;;;5.03;;
79755;SDS011;69239;50.678;12.280;2023-05-14T01:45:38;8.35;;;5.15;;
79755;SDS011;69239;50.678;12.280;2023-05-14T01:48:04;6.37;;;4.70;;
79755;SDS011;69239;50.678;12.280;2023-05-14T01:50:29;6.57;;;5.57;;
79755;SDS011;69239;50.678;12.280;2023-05-14T01:52:55;8.02;;;5.65;;
79755;SDS011;69239;50.678;12.280;2023-05-14T01:55:23;11.02;;;5.85;;
79755;SDS011;69239;50.678;12.280;2023-05-14T01:57:49;6.00;;;5.13;;
79755;SDS011;69239;50.678;12.280;2023-05-14T02:00:15;7.43;;;5.22;;
79755;SDS011;69239;50.678;12.280;2023-05-14T02:02:41;7.20;;;5.68;;
79755;SDS011;69239;50.678;12.280;2023-05-14T02:05:06;8.18;;;5.63;;
79755;SDS011;69239;50.678;12.280;2023-05-14T02:07:32;8.48;;;5.32;;
79755;SDS011;69239;50.678;12.280;2023-05-14T02:09:57;6.90;;;5.78;;
79755;SDS011;69239;50.678;12.280;2023-05-14T02:12:23;7.10;;;5.35;;
79755;SDS011;69239;50.678;12.280;2023-05-14T02:14:48;13.80;;;6.40;;
79755;SDS011;69239;50.678;12.280;2023-05-14T02:17:14;8.37;;;5.77;;
79755;SDS011;69239;50.678;12.280;2023-05-14T02:19:41;6.72;;;5.32;;
79755;SDS011;69239;50.678;12.280;2023-05-14T02:22:07;9.15;;;5.78;;
79755;SDS011;69239;50.678;12.280;2023-05-14T02:24:32;8.00;;;6.10;;
79755;SDS011;69239;50.678;12.280;2023-05-14T02:26:58;8.20;;;5.93;;
79755;SDS011;69239;50.678;12.280;2023-05-14T02:29:25;7.18;;;5.72;;
79755;SDS011;69239;50.678;12.280;2023-05-14T02:31:50;10.30;;;5.93;;
79755;SDS011;69239;50.678;12.280;2023-05-14T02:34:16;8.10;;;6.03;;
79755;SDS011;69239;50.678;12.280;2023-05-14T02:36:41;9.73;;;5.88;;
79755;SDS011;69239;50.678;12.280;2023-05-14T02:39:06;6.90;;;5.55;;
79755;SDS011;69239;50.678;12.280;2023-05-14T02:41:32;10.40;;;6.97;;
79755;SDS011;69239;50.678;12.280;2023-05-14T02:43:57;8.82;;;6.18;;
79755;SDS011;69239;50.678;12.280;2023-05-14T02:46:22;7.90;;;5.40;;
79755;SDS011;69239;50.678;12.280;2023-05-14T02:48:48;9.13;;;6.05;;
79755;SDS011;69239;50.678;12.280;2023-05-14T02:51:13;8.00;;;5.53;;
79755;SDS011;69239;50.678;12.280;2023-05-14T02:53:38;5.32;;;4.47;;
79755;SDS011;69239;50.678;12.280;2023-05-14T02:56:04;8.52;;;6.07;;
79755;SDS011;69239;50.678;12.280;2023-05-14T02:58:29;9.18;;;5.63;;
79755;SDS011;69239;50.678;12.280;2023-05-14T03:00:55;9.68;;;6.57;;
79755;SDS011;69239;50.678;12.280;2023-05-14T03:03:20;7.95;;;6.13;;
79755;SDS011;69239;50.678;12.280;2023-05-14T03:05:46;4.32;;;3.85;;
79755;SDS011;69239;50.678;12.280;2023-05-14T03:08:11;7.13;;;5.80;;
79755;SDS011;69239;50.678;12.280;2023-05-14T03:10:36;7.72;;;6.30;;
79755;SDS011;69239;50.678;12.280;2023-05-14T03:13:02;9.43;;;6.95;;
79755;SDS011;69239;50.678;12.280;2023-05-14T03:15:27;11.38;;;6.60;;
79755;SDS011;69239;50.678;12.280;2023-05-14T03:17:53;10.68;;;7.00;;
79755;SDS011;69239;50.678;12.280;2023-05-14T03:20:18;8.07;;;6.57;;
79755;SDS011;69239;50.678;12.280;2023-05-14T03:22:44;9.20;;;5.55;;
79755;SDS011;69239;50.678;12.280;2023-05-14T03:25:09;8.93;;;6.70;;
79755;SDS011;69239;50.678;12.280;2023-05-14T03:27:35;6.87;;;4.53;;
79755;SDS011;69239;50.678;12.280;2023-05-14T03:30:00;9.90;;;6.50;;
79755;SDS011;69239;50.678;12.280;2023-05-14T03:32:25;9.15;;;6.80;;
79755;SDS011;69239;50.678;12.280;2023-05-14T03:34:51;11.35;;;6.60;;
79755;SDS011;69239;50.678;12.280;2023-05-14T03:37:16;7.80;;;5.88;;
79755;SDS011;69239;50.678;12.280;2023-05-14T03:39:42;10.30;;;7.57;;
79755;SDS011;69239;50.678;12.280;2023-05-14T03:42:07;9.60;;;7.18;;
79755;SDS011;69239;50.678;12.280;2023-05-14T03:44:32;6.67;;;5.17;;
79755;SDS011;69239;50.678;12.280;2023-05-14T03:46:57;9.03;;;6.27;;
79755;SDS011;69239;50.678;12.280;2023-05-14T03:49:23;5.53;;;4.05;;
79755;SDS011;69239;50.678;12.280;2023-05-14T03:51:49;8.85;;;6.50;;
79755;SDS011;69239;50.678;12.280;2023-05-14T03:54:14;6.35;;;5.30;;
79755;SDS011;69239;50.678;12.280;2023-05-14T03:56:40;9.10;;;6.40;;
79755;SDS011;69239;50.678;12.280;2023-05-14T03:59:05;11.03;;;7.60;;
79755;SDS011;69239;50.678;12.280;2023-05-14T04:01:30;9.35;;;6.80;;
79755;SDS011;69239;50.678;12.280;2023-05-14T04:03:56;6.78;;;4.93;;
79755;SDS011;69239;50.678;12.280;2023-05-14T04:06:21;11.05;;;7.07;;
79755;SDS011;69239;50.678;12.280;2023-05-14T04:08:47;6.88;;;5.28;;
79755;SDS011;69239;50.678;12.280;2023-05-14T04:11:12;6.17;;;4.03;;
79755;SDS011;69239;50.678;12.280;2023-05-14T04:13:37;4.97;;;4.00;;
79755;SDS011;69239;50.678;12.280;2023-05-14T04:16:03;6.00;;;4.72;;
79755;SDS011;69239;50.678;12.280;2023-05-14T04:18:28;5.18;;;4.45;;
79755;SDS011;69239;50.678;12.280;2023-05-14T04:20:54;6.03;;;5.43;;
79755;SDS011;69239;50.678;12.280;2023-05-14T04:23:20;8.75;;;6.43;;
79755;SDS011;69239;50.678;12.280;2023-05-14T04:25:45;8.82;;;6.07;;
79755;SDS011;69239;50.678;12.280;2023-05-14T04:28:11;5.15;;;4.00;;
79755;SDS011;69239;50.678;12.280;2023-05-14T04:30:36;5.57;;;4.93;;
79755;SDS011;69239;50.678;12.280;2023-05-14T04:33:02;11.18;;;6.15;;
79755;SDS011;69239;50.678;12.280;2023-05-14T04:35:27;7.25;;;5.00;;
79755;SDS011;69239;50.678;12.280;2023-05-14T04:37:53;8.63;;;5.90;;
79755;SDS011;69239;50.678;12.280;2023-05-14T04:40:18;6.85;;;5.65;;
79755;SDS011;69239;50.678;12.280;2023-05-14T04:42:44;5.60;;;4.60;;
79755;SDS011;69239;50.678;12.280;2023-05-14T04:45:09;7.67;;;6.07;;
79755;SDS011;69239;50.678;12.280;2023-05-14T04:47:35;8.93;;;6.07;;
79755;SDS011;69239;50.678;12.280;2023-05-14T04:50:00;8.93;;;6.88;;
79755;SDS011;69239;50.678;12.280;2023-05-14T04:52:26;10.35;;;5.47;;
79755;SDS011;69239;50.678;12.280;2023-05-14T04:54:52;9.75;;;7.35;;
79755;SDS011;69239;50.678;12.280;2023-05-14T04:57:17;8.82;;;6.75;;
79755;SDS011;69239;50.678;12.280;2023-05-14T04:59:42;12.48;;;7.65;;
79755;SDS011;69239;50.678;12.280;2023-05-14T05:02:08;7.03;;;5.05;;
79755;SDS011;69239;50.678;12.280;2023-05-14T05:04:33;11.73;;;7.37;;
79755;SDS011;69239;50.678;12.280;2023-05-14T05:06:58;9.27;;;7.07;;
79755;SDS011;69239;50.678;12.280;2023-05-14T05:09:24;10.30;;;7.65;;
79755;SDS011;69239;50.678;12.280;2023-05-14T05:11:49;11.43;;;7.95;;
79755;SDS011;69239;50.678;12.280;2023-05-14T05:14:15;7.85;;;5.75;;
79755;SDS011;69239;50.678;12.280;2023-05-14T05:16:40;10.23;;;7.30;;
79755;SDS011;69239;50.678;12.280;2023-05-14T05:19:05;7.87;;;5.67;;
79755;SDS011;69239;50.678;12.280;2023-05-14T05:21:31;6.23;;;5.53;;
79755;SDS011;69239;50.678;12.280;2023-05-14T05:23:56;7.13;;;5.28;;
79755;SDS011;69239;50.678;12.280;2023-05-14T05:26:22;10.35;;;7.90;;
79755;SDS011;69239;50.678;12.280;2023-05-14T05:28:47;12.30;;;8.73;;
79755;SDS011;69239;50.678;12.280;2023-05-14T05:31:12;11.05;;;7.80;;
79755;SDS011;69239;50.678;12.280;2023-05-14T05:33:38;11.93;;;8.30;;
79755;SDS011;69239;50.678;12.280;2023-05-14T05:36:03;14.32;;;8.65;;
79755;SDS011;69239;50.678;12.280;2023-05-14T05:38:29;10.02;;;7.75;;
79755;SDS011;69239;50.678;12.280;2023-05-14T05:40:54;11.93;;;8.55;;
79755;SDS011;69239;50.678;12.280;2023-05-14T05:43:20;9.68;;;7.85;;
79755;SDS011;69239;50.678;12.280;2023-05-14T05:45:45;11.35;;;7.80;;
79755;SDS011;69239;50.678;12.280;2023-05-14T05:48:10;10.07;;;8.13;;
79755;SDS011;69239;50.678;12.280;2023-05-14T05:50:36;11.33;;;8.13;;
79755;SDS011;69239;50.678;12.280;2023-05-14T05:53:01;11.77;;;8.07;;
79755;SDS011;69239;50.678;12.280;2023-05-14T05:55:27;11.25;;;9.10;;
79755;SDS011;69239;50.678;12.280;2023-05-14T05:57:53;8.95;;;7.22;;
79755;SDS011;69239;50.678;12.280;2023-05-14T06:00:19;9.88;;;7.55;;
79755;SDS011;69239;50.678;12.280;2023-05-14T06:02:45;11.00;;;7.47;;
79755;SDS011;69239;50.678;12.280;2023-05-14T06:05:10;9.55;;;7.78;;
79755;SDS011;69239;50.678;12.280;2023-05-14T06:07:36;12.55;;;7.80;;
79755;SDS011;69239;50.678;12.280;2023-05-14T06:10:02;10.68;;;6.78;;
79755;SDS011;69239;50.678;12.280;2023-05-14T06:12:28;9.50;;;7.20;;
79755;SDS011;69239;50.678;12.280;2023-05-14T06:14:54;8.40;;;6.40;;
79755;SDS011;69239;50.678;12.280;2023-05-14T06:17:21;8.73;;;6.05;;
79755;SDS011;69239;50.678;12.280;2023-05-14T06:19:50;8.65;;;6.18;;
79755;SDS011;69239;50.678;12.280;2023-05-14T06:22:16;8.32;;;6.00;;
79755;SDS011;69239;50.678;12.280;2023-05-14T06:24:42;7.65;;;5.75;;
79755;SDS011;69239;50.678;12.280;2023-05-14T06:27:07;8.93;;;5.93;;
79755;SDS011;69239;50.678;12.280;2023-05-14T06:29:32;4.95;;;4.03;;
79755;SDS011;69239;50.678;12.280;2023-05-14T06:32:01;5.77;;;4.57;;
79755;SDS011;69239;50.678;12.280;2023-05-14T06:34:28;5.18;;;4.22;;
79755;SDS011;69239;50.678;12.280;2023-05-14T06:36:53;4.90;;;3.70;;
79755;SDS011;69239;50.678;12.280;2023-05-14T06:39:19;5.15;;;4.03;;
79755;SDS011;69239;50.678;12.280;2023-05-14T06:41:44;4.18;;;3.67;;
79755;SDS011;69239;50.678;12.280;2023-05-14T06:44:09;6.53;;;3.65;;
79755;SDS011;69239;50.678;12.280;2023-05-14T06:46:35;6.40;;;4.53;;
79755;SDS011;69239;50.678;12.280;2023-05-14T06:49:00;5.93;;;4.35;;
79755;SDS011;69239;50.678;12.280;2023-05-14T06:51:26;6.63;;;4.83;;
79755;SDS011;69239;50.678;12.280;2023-05-14T06:53:51;6.88;;;3.88;;
79755;SDS011;69239;50.678;12.280;2023-05-14T06:56:18;4.90;;;4.05;;
79755;SDS011;69239;50.678;12.280;2023-05-14T06:58:43;6.05;;;3.60;;
79755;SDS011;69239;50.678;12.280;2023-05-14T07:01:08;4.43;;;3.40;;
79755;SDS011;69239;50.678;12.280;2023-05-14T07:03:34;5.30;;;3.85;;
79755;SDS011;69239;50.678;12.280;2023-05-14T07:06:00;4.38;;;3.90;;
79755;SDS011;69239;50.678;12.280;2023-05-14T07:08:25;4.30;;;3.70;;
79755;SDS011;69239;50.678;12.280;2023-05-14T07:10:50;7.47;;;3.47;;
79755;SDS011;69239;50.678;12.280;2023-05-14T07:13:16;4.28;;;3.20;;
79755;SDS011;69239;50.678;12.280;2023-05-14T07:15:41;3.42;;;3.05;;
79755;SDS011;69239;50.678;12.280;2023-05-14T07:18:06;5.00;;;3.33;;
79755;SDS011;69239;50.678;12.280;2023-05-14T07:20:32;5.35;;;3.45;;
79755;SDS011;69239;50.678;12.280;2023-05-14T07:22:58;4.13;;;3.50;;
79755;SDS011;69239;50.678;12.280;2023-05-14T07:25:23;3.30;;;3.00;;
79755;SDS011;69239;50.678;12.280;2023-05-14T07:27:48;4.80;;;3.13;;
79755;SDS011;69239;50.678;12.280;2023-05-14T07:30:14;4.22;;;2.85;;
79755;SDS011;69239;50.678;12.280;2023-05-14T07:32:39;4.80;;;3.17;;
79755;SDS011;69239;50.678;12.280;2023-05-14T07:35:05;4.35;;;3.03;;
79755;SDS011;69239;50.678;12.280;2023-05-14T07:37:30;2.90;;;2.53;;
79755;SDS011;69239;50.678;12.280;2023-05-14T07:39:56;3.58;;;2.60;;
79755;SDS011;69239;50.678;12.280;2023-05-14T07:42:21;3.87;;;3.20;;
79755;SDS011;69239;50.678;12.280;2023-05-14T07:44:46;3.80;;;2.63;;
79755;SDS011;69239;50.678;12.280;2023-05-14T07:47:12;3.35;;;2.90;;
79755;SDS011;69239;50.678;12.280;2023-05-14T07:49:37;2.92;;;2.63;;
79755;SDS011;69239;50.678;12.280;2023-05-14T07:52:03;3.15;;;2.58;;
79755;SDS011;69239;50.678;12.280;2023-05-14T07:54:28;2.55;;;2.08;;
79755;SDS011;69239;50.678;12.280;2023-05-14T07:56:53;5.23;;;3.10;;
79755;SDS011;69239;50.678;12.280;2023-05-14T07:59:19;2.55;;;2.35;;
79755;SDS011;69239;50.678;12.280;2023-05-14T08:01:44;4.03;;;2.72;;
79755;SDS011;69239;50.678;12.280;2023-05-14T08:04:09;3.33;;;2.88;;
79755;SDS011;69239;50.678;12.280;2023-05-14T08:06:40;4.65;;;2.90;;
79755;SDS011;69239;50.678;12.280;2023-05-14T08:09:06;3.28;;;2.65;;
79755;SDS011;69239;50.678;12.280;2023-05-14T08:11:33;2.88;;;2.58;;
79755;SDS011;69239;50.678;12.280;2023-05-14T08:13:59;4.32;;;2.85;;
79755;SDS011;69239;50.678;12.280;2023-05-14T08:16:24;3.38;;;2.83;;
79755;SDS011;69239;50.678;12.280;2023-05-14T08:18:50;3.08;;;2.53;;
79755;SDS011;69239;50.678;12.280;2023-05-14T08:21:16;3.40;;;3.10;;
79755;SDS011;69239;50.678;12.280;2023-05-14T08:23:41;4.70;;;2.97;;
79755;SDS011;69239;50.678;12.280;2023-05-14T08:26:07;3.95;;;3.08;;
79755;SDS011;69239;50.678;12.280;2023-05-14T08:28:32;4.38;;;3.13;;
79755;SDS011;69239;50.678;12.280;2023-05-14T08:30:58;3.97;;;2.95;;
79755;SDS011;69239;50.678;12.280;2023-05-14T08:33:23;4.13;;;2.90;;
79755;SDS011;69239;50.678;12.280;2023-05-14T08:35:49;4.28;;;3.00;;
79755;SDS011;69239;50.678;12.280;2023-05-14T08:38:16;5.93;;;3.33;;
79755;SDS011;69239;50.678;12.280;2023-05-14T08:40:45;4.35;;;3.17;;
79755;SDS011;69239;50.678;12.280;2023-05-14T08:43:12;4.60;;;3.50;;
79755;SDS011;69239;50.678;12.280;2023-05-14T08:45:44;4.28;;;3.30;;
79755;SDS011;69239;50.678;12.280;2023-05-14T08:48:10;4.30;;;3.40;;
79755;SDS011;69239;50.678;12.280;2023-05-14T08:50:38;3.97;;;3.13;;
79755;SDS011;69239;50.678;12.280;2023-05-14T08:53:04;4.00;;;3.33;;
79755;SDS011;69239;50.678;12.280;2023-05-14T08:55:29;4.05;;;2.85;;
79755;SDS011;69239;50.678;12.280;2023-05-14T08:57:56;3.72;;;2.70;;
79755;SDS011;69239;50.678;12.280;2023-05-14T09:00:22;5.88;;;3.40;;
79755;SDS011;69239;50.678;12.280;2023-05-14T09:02:48;4.03;;;3.45;;
79755;SDS011;69239;50.678;12.280;2023-05-14T09:05:14;4.97;;;3.97;;
79755;SDS011;69239;50.678;12.280;2023-05-14T09:07:42;4.10;;;3.20;;
79755;SDS011;69239;50.678;12.280;2023-05-14T09:10:07;3.95;;;2.90;;
79755;SDS011;69239;50.678;12.280;2023-05-14T09:12:33;4.10;;;3.05;;
79755;SDS011;69239;50.678;12.280;2023-05-14T09:14:58;3.53;;;2.87;;
79755;SDS011;69239;50.678;12.280;2023-05-14T09:17:25;3.78;;;3.00;;
79755;SDS011;69239;50.678;12.280;2023-05-14T09:19:51;3.75;;;3.08;;
79755;SDS011;69239;50.678;12.280;2023-05-14T09:22:17;4.32;;;3.30;;
79755;SDS011;69239;50.678;12.280;2023-05-14T09:24:43;4.18;;;2.80;;
79755;SDS011;69239;50.678;12.280;2023-05-14T09:27:14;3.22;;;2.92;;
79755;SDS011;69239;50.678;12.280;2023-05-14T09:29:43;7.15;;;3.38;;
79755;SDS011;69239;50.678;12.280;2023-05-14T09:32:08;3.95;;;2.85;;
79755;SDS011;69239;50.678;12.280;2023-05-14T09:34:34;4.15;;;3.55;;
79755;SDS011;69239;50.678;12.280;2023-05-14T09:37:04;3.30;;;2.72;;
79755;SDS011;69239;50.678;12.280;2023-05-14T09:39:31;3.80;;;3.00;;
79755;SDS011;69239;50.678;12.280;2023-05-14T09:41:56;4.57;;;3.60;;
79755;SDS011;69239;50.678;12.280;2023-05-14T09:44:23;5.30;;;3.58;;
79755;SDS011;69239;50.678;12.280;2023-05-14T09:46:49;4.10;;;3.42;;
79755;SDS011;69239;50.678;12.280;2023-05-14T09:49:15;4.22;;;3.42;;
79755;SDS011;69239;50.678;12.280;2023-05-14T09:51:40;4.10;;;3.35;;
79755;SDS011;69239;50.678;12.280;2023-05-14T09:54:06;3.70;;;3.05;;
79755;SDS011;69239;50.678;12.280;2023-05-14T09:56:32;4.45;;;3.25;;
79755;SDS011;69239;50.678;12.280;2023-05-14T09:58:59;5.25;;;3.45;;
79755;SDS011;69239;50.678;12.280;2023-05-14T10:01:25;4.63;;;3.70;;
79755;SDS011;69239;50.678;12.280;2023-05-14T10:03:52;4.93;;;4.00;;
79755;SDS011;69239;50.678;12.280;2023-05-14T10:06:20;3.63;;;3.30;;
79755;SDS011;69239;50.678;12.280;2023-05-14T10:08:47;5.38;;;3.80;;
79755;SDS011;69239;50.678;12.280;2023-05-14T10:11:17;4.40;;;3.85;;
79755;SDS011;69239;50.678;12.280;2023-05-14T10:13:51;4.03;;;3.50;;
79755;SDS011;69239;50.678;12.280;2023-05-14T10:16:43;4.35;;;3.95;;
79755;SDS011;69239;50.678;12.280;2023-05-14T10:19:12;3.78;;;3.28;;
79755;SDS011;69239;50.678;12.280;2023-05-14T10:21:40;4.50;;;3.75;;
79755;SDS011;69239;50.678;12.280;2023-05-14T10:24:08;4.07;;;3.20;;
79755;SDS011;69239;50.678;12.280;2023-05-14T10:26:35;4.65;;;3.70;;
79755;SDS011;69239;50.678;12.280;2023-05-14T10:29:06;3.45;;;2.92;;
79755;SDS011;69239;50.678;12.280;2023-05-14T10:31:47;3.97;;;3.13;;
79755;SDS011;69239;50.678;12.280;2023-05-14T10:34:29;3.75;;;2.65;;
79755;SDS011;69239;50.678;12.280;2023-05-14T10:36:57;3.22;;;2.92;;
79755;SDS011;69239;50.678;12.280;2023-05-14T10:39:38;3.35;;;2.80;;
79755;SDS011;69239;50.678;12.280;2023-05-14T10:42:11;4.90;;;3.42;;
79755;SDS011;69239;50.678;12.280;2023-05-14T10:44:46;3.88;;;3.10;;
79755;SDS011;69239;50.678;12.280;2023-05-14T10:47:25;4.18;;;3.22;;
79755;SDS011;69239;50.678;12.280;2023-05-14T10:49:52;3.92;;;3.03;;
79755;SDS011;69239;50.678;12.280;2023-05-14T10:52:20;3.50;;;3.20;;
79755;SDS011;69239;50.678;12.280;2023-05-14T10:57:19;3.78;;;3.03;;
79755;SDS011;69239;50.678;12.280;2023-05-14T10:59:46;3.88;;;2.80;;
79755;SDS011;69239;50.678;12.280;2023-05-14T11:02:25;3.28;;;2.90;;
79755;SDS011;69239;50.678;12.280;2023-05-14T11:07:29;4.30;;;2.75;;
79755;SDS011;69239;50.678;12.280;2023-05-14T11:09:58;3.17;;;2.50;;
79755;SDS011;69239;50.678;12.280;2023-05-14T11:12:27;3.13;;;2.83;;
79755;SDS011;69239;50.678;12.280;2023-05-14T11:14:55;3.00;;;2.60;;
79755;SDS011;69239;50.678;12.280;2023-05-14T11:17:21;4.05;;;2.78;;
79755;SDS011;69239;50.678;12.280;2023-05-14T11:19:48;3.15;;;2.85;;
79755;SDS011;69239;50.678;12.280;2023-05-14T11:22:13;4.18;;;2.53;;
79755;SDS011;69239;50.678;12.280;2023-05-14T11:24:39;3.95;;;3.05;;
79755;SDS011;69239;50.678;12.280;2023-05-14T11:27:06;5.50;;;3.10;;
79755;SDS011;69239;50.678;12.280;2023-05-14T11:29:33;5.40;;;3.20;;
79755;SDS011;69239;50.678;12.280;2023-05-14T11:32:00;3.53;;;2.92;;
79755;SDS011;69239;50.678;12.280;2023-05-14T11:34:26;3.15;;;2.85;;
79755;SDS011;69239;50.678;12.280;2023-05-14T11:36:51;2.78;;;2.53;;
79755;SDS011;69239;50.678;12.280;2023-05-14T11:39:17;5.30;;;3.27;;
79755;SDS011;69239;50.678;12.280;2023-05-14T11:41:45;4.90;;;2.85;;
79755;SDS011;69239;50.678;12.280;2023-05-14T11:44:11;3.40;;;3.10;;
79755;SDS011;69239;50.678;12.280;2023-05-14T11:46:36;6.05;;;2.97;;
79755;SDS011;69239;50.678;12.280;2023-05-14T11:49:05;4.25;;;3.38;;
79755;SDS011;69239;50.678;12.280;2023-05-14T11:51:31;3.75;;;3.33;;
79755;SDS011;69239;50.678;12.280;2023-05-14T11:53:56;3.55;;;3.25;;
79755;SDS011;69239;50.678;12.280;2023-05-14T11:56:25;3.00;;;2.67;;
79755;SDS011;69239;50.678;12.280;2023-05-14T11:58:56;3.83;;;3.17;;
79755;SDS011;69239;50.678;12.280;2023-05-14T12:01:22;3.85;;;2.78;;
79755;SDS011;69239;50.678;12.280;2023-05-14T12:03:48;3.17;;;2.78;;
79755;SDS011;69239;50.678;12.280;2023-05-14T12:06:14;3.97;;;3.00;;
79755;SDS011;69239;50.678;12.280;2023-05-14T12:08:39;3.50;;;3.15;;
79755;SDS011;69239;50.678;12.280;2023-05-14T12:11:05;3.42;;;3.10;;
79755;SDS011;69239;50.678;12.280;2023-05-14T12:13:31;2.75;;;2.55;;
79755;SDS011;69239;50.678;12.280;2023-05-14T12:15:57;3.45;;;2.65;;
79755;SDS011;69239;50.678;12.280;2023-05-14T12:18:24;3.35;;;2.75;;
79755;SDS011;69239;50.678;12.280;2023-05-14T12:20:51;3.05;;;2.38;;
79755;SDS011;69239;50.678;12.280;2023-05-14T12:23:23;3.28;;;2.85;;
79755;SDS011;69239;50.678;12.280;2023-05-14T12:25:50;4.30;;;3.17;;
79755;SDS011;69239;50.678;12.280;2023-05-14T12:28:16;4.18;;;2.55;;
79755;SDS011;69239;50.678;12.280;2023-05-14T12:30:42;3.33;;;3.00;;
79755;SDS011;69239;50.678;12.280;2023-05-14T12:33:07;3.22;;;2.58;;
79755;SDS011;69239;50.678;12.280;2023-05-14T12:35:33;4.40;;;3.05;;
79755;SDS011;69239;50.678;12.280;2023-05-14T12:38:00;3.38;;;2.50;;
79755;SDS011;69239;50.678;12.280;2023-05-14T12:40:26;3.45;;;3.03;;
79755;SDS011;69239;50.678;12.280;2023-05-14T12:42:51;3.60;;;2.70;;
79755;SDS011;69239;50.678;12.280;2023-05-14T12:45:16;2.97;;;2.63;;
79755;SDS011;69239;50.678;12.280;2023-05-14T12:47:41;3.42;;;2.92;;
79755;SDS011;69239;50.678;12.280;2023-05-14T12:50:07;4.57;;;2.83;;
79755;SDS011;69239;50.678;12.280;2023-05-14T12:52:33;3.80;;;2.80;;
79755;SDS011;69239;50.678;12.280;2023-05-14T12:54:58;2.90;;;2.60;;
79755;SDS011;69239;50.678;12.280;2023-05-14T12:57:24;3.30;;;2.78;;
79755;SDS011;69239;50.678;12.280;2023-05-14T12:59:49;3.10;;;2.55;;
79755;SDS011;69239;50.678;12.280;2023-05-14T13:02:14;2.65;;;2.42;;
79755;SDS011;69239;50.678;12.280;2023-05-14T13:04:41;5.88;;;2.70;;
79755;SDS011;69239;50.678;12.280;2023-05-14T13:07:06;3.38;;;2.55;;
79755;SDS011;69239;50.678;12.280;2023-05-14T13:09:32;3.00;;;2.60;;
79755;SDS011;69239;50.678;12.280;2023-05-14T13:11:58;2.78;;;2.40;;
79755;SDS011;69239;50.678;12.280;2023-05-14T13:14:23;2.63;;;2.42;;
79755;SDS011;69239;50.678;12.280;2023-05-14T13:16:49;3.73;;;2.60;;
79755;SDS011;69239;50.678;12.280;2023-05-14T13:19:14;4.10;;;2.95;;
79755;SDS011;69239;50.678;12.280;2023-05-14T13:21:39;4.35;;;3.20;;
79755;SDS011;69239;50.678;12.280;2023-05-14T13:24:05;4.05;;;3.25;;
79755;SDS011;69239;50.678;12.280;2023-05-14T13:26:30;3.13;;;2.53;;
79755;SDS011;69239;50.678;12.280;2023-05-14T13:28:56;4.30;;;2.42;;
79755;SDS011;69239;50.678;12.280;2023-05-14T13:31:21;4.63;;;3.00;;
79755;SDS011;69239;50.678;12.280;2023-05-14T13:33:46;3.00;;;2.67;;
79755;SDS011;69239;50.678;12.280;2023-05-14T13:36:12;4.45;;;2.97;;
79755;SDS011;69239;50.678;12.280;2023-05-14T13:38:38;4.57;;;2.92;;
79755;SDS011;69239;50.678;12.280;2023-05-14T13:41:04;4.95;;;3.22;;
79755;SDS011;69239;50.678;12.280;2023-05-14T13:43:30;3.92;;;2.80;;
79755;SDS011;69239;50.678;12.280;2023-05-14T13:45:57;3.40;;;2.97;;
79755;SDS011;69239;50.678;12.280;2023-05-14T13:48:23;4.45;;;3.47;;
79755;SDS011;69239;50.678;12.280;2023-05-14T13:50:49;3.20;;;2.90;;
79755;SDS011;69239;50.678;12.280;2023-05-14T13:53:16;4.65;;;2.97;;
79755;SDS011;69239;50.678;12.280;2023-05-14T13:55:42;2.45;;;1.90;;
79755;SDS011;69239;50.678;12.280;2023-05-14T13:58:08;2.85;;;1.80;;
79755;SDS011;69239;50.678;12.280;2023-05-14T14:00:34;2.72;;;2.28;;
79755;SDS011;69239;50.678;12.280;2023-05-14T14:02:59;2.65;;;1.77;;
79755;SDS011;69239;50.678;12.280;2023-05-14T14:05:24;4.45;;;2.15;;
79755;SDS011;69239;50.678;12.280;2023-05-14T14:07:52;2.28;;;1.90;;
79755;SDS011;69239;50.678;12.280;2023-05-14T14:10:18;3.20;;;2.10;;
79755;SDS011;69239;50.678;12.280;2023-05-14T14:12:43;2.60;;;2.00;;
79755;SDS011;69239;50.678;12.280;2023-05-14T14:15:09;2.63;;;2.20;;
79755;SDS011;69239;50.678;12.280;2023-05-14T14:17:35;2.60;;;2.08;;
79755;SDS011;69239;50.678;12.280;2023-05-14T14:20:01;2.53;;;2.08;;
79755;SDS011;69239;50.678;12.280;2023-05-14T14:22:29;4.32;;;2.65;;
79755;SDS011;69239;50.678;12.280;2023-05-14T14:24:55;3.33;;;2.80;;
79755;SDS011;69239;50.678;12.280;2023-05-14T14:27:20;3.42;;;2.47;;
79755;SDS011;69239;50.678;12.280;2023-05-14T14:29:46;3.42;;;2.33;;
79755;SDS011;69239;50.678;12.280;2023-05-14T14:32:11;2.53;;;2.15;;
79755;SDS011;69239;50.678;12.280;2023-05-14T14:34:37;2.50;;;2.30;;
79755;SDS011;69239;50.678;12.280;2023-05-14T14:37:02;2.78;;;2.58;;